Time;durP1;ratioP1;P1;durP2;ratioP2;P2;SDS_P1;SDS_P2;PMS_P1;PMS_P2;Temp;Humidity;BMP_temperature;BMP_pressure;BME280_temperature;BME280_humidity;BME280_pressure;Samples;Min_cycle;Max_cycle;Signal;HPM_P1;HPM_P2
2022/10/20 00:02:03;;;;;;;;;;;23.60;96.10;;;;;;4194386;28;19935;-70
2022/10/20 00:04:09;;;;;;;;;;;23.60;96.00;;;;;;4194090;28;20473;-72
2022/10/20 00:06:28;;;;;;;;;;;23.60;95.90;;;;;;4194308;28;19986;-70
2022/10/20 00:08:34;;;;;;;;;;;23.70;95.80;;;;;;4195167;28;19924;-70
2022/10/20 00:10:54;;;;;;;;;;;23.70;95.70;;;;;;4209195;28;19932;-69
2022/10/20 00:13:07;;;;;;;;;;;23.70;95.40;;;;;;4208481;28;19928;-71
2022/10/20 00:15:13;;;;;;;;;;;23.80;95.30;;;;;;4209554;28;19934;-70
2022/10/20 00:17:22;;;;;;;;;;;23.80;95.20;;;;;;4192063;28;19936;-69
2022/10/20 00:19:36;;;;;;;;;;;23.80;95.30;;;;;;4203675;28;20037;-71
2022/10/20 00:21:46;;;;;;;;;;;23.90;95.60;;;;;;4190934;28;19929;-70
2022/10/20 00:24:05;;;;;;;;;;;23.90;95.70;;;;;;4193528;28;20576;-70
2022/10/20 00:26:31;;;;;;;;;;;23.90;95.50;;;;;;4184142;28;20388;-70
2022/10/20 00:28:36;;;;;;;;;;;23.90;95.50;;;;;;4193736;28;19978;-71
2022/10/20 00:30:55;;;;;;;;;;;23.90;95.50;;;;;;4163413;28;19932;-71
2022/10/20 00:33:18;;;;;;;;;;;24.00;95.50;;;;;;4169975;28;19959;-71
2022/10/20 00:35:25;;;;;;;;;;;24.00;95.30;;;;;;4192061;28;19928;-71
2022/10/20 00:37:33;;;;;;;;;;;24.00;95.30;;;;;;4195761;28;19977;-72
2022/10/20 00:39:42;;;;;;;;;;;24.00;95.00;;;;;;4192176;28;19962;-70
2022/10/20 00:42:01;;;;;;;;;;;24.00;95.00;;;;;;4195946;28;20512;-71
2022/10/20 00:44:19;;;;;;;;;;;24.00;94.90;;;;;;4193628;28;19979;-71
2022/10/20 00:46:35;;;;;;;;;;;24.00;94.70;;;;;;4197505;28;20406;-70
2022/10/20 00:48:42;;;;;;;;;;;24.10;94.70;;;;;;4209159;28;19975;-70
2022/10/20 00:50:48;;;;;;;;;;;24.10;94.70;;;;;;4193507;28;19928;-70
2022/10/20 00:52:52;;;;;;;;;;;24.10;94.70;;;;;;4194833;28;19960;-71
2022/10/20 00:54:57;;;;;;;;;;;24.10;94.90;;;;;;4186940;28;19940;-71
2022/10/20 00:57:01;;;;;;;;;;;24.10;94.90;;;;;;4211238;28;19928;-70
2022/10/20 00:59:08;;;;;;;;;;;24.20;94.80;;;;;;4208910;28;20614;-72
2022/10/20 01:01:20;;;;;;;;;;;24.20;94.80;;;;;;4194632;28;20458;-72
2022/10/20 01:03:29;;;;;;;;;;;24.20;94.70;;;;;;4174091;28;19932;-72
2022/10/20 01:05:35;;;;;;;;;;;24.20;94.60;;;;;;4179628;28;20409;-70
2022/10/20 01:07:43;;;;;;;;;;;24.20;94.70;;;;;;4191424;28;19936;-71
2022/10/20 01:09:47;;;;;;;;;;;24.20;94.70;;;;;;4182844;28;19928;-70
2022/10/20 01:12:07;;;;;;;;;;;24.20;94.50;;;;;;4186393;28;19963;-71
2022/10/20 01:14:37;;;;;;;;;;;24.20;94.70;;;;;;4190650;28;19924;-71
2022/10/20 01:16:45;;;;;;;;;;;24.30;94.50;;;;;;4190833;28;19929;-69
2022/10/20 01:19:02;;;;;;;;;;;24.30;94.30;;;;;;4194587;28;19995;-70
2022/10/20 01:21:14;;;;;;;;;;;24.40;94.30;;;;;;4207741;28;20446;-70
2022/10/20 01:23:48;;;;;;;;;;;24.40;94.30;;;;;;4190890;28;20391;-70
2022/10/20 01:26:10;;;;;;;;;;;24.50;94.40;;;;;;4191030;28;19990;-71
2022/10/20 01:28:25;;;;;;;;;;;24.50;94.30;;;;;;4182147;28;19929;-70
2022/10/20 01:30:31;;;;;;;;;;;24.60;94.40;;;;;;4204071;28;20272;-69
2022/10/20 01:32:40;;;;;;;;;;;24.60;94.10;;;;;;4187607;28;20506;-70
2022/10/20 01:35:01;;;;;;;;;;;24.60;94.30;;;;;;4192590;28;19928;-70
2022/10/20 01:37:28;;;;;;;;;;;24.70;94.30;;;;;;4208283;28;19931;-70
2022/10/20 01:39:53;;;;;;;;;;;24.80;94.20;;;;;;4206318;28;20430;-71
2022/10/20 01:42:03;;;;;;;;;;;24.80;94.00;;;;;;4194987;28;19931;-69
2022/10/20 01:44:11;;;;;;;;;;;24.80;93.90;;;;;;4210673;28;19924;-71
2022/10/20 01:46:18;;;;;;;;;;;24.90;93.60;;;;;;4192481;28;19938;-70
2022/10/20 01:48:28;;;;;;;;;;;24.90;93.40;;;;;;4186599;28;19936;-71
2022/10/20 01:50:36;;;;;;;;;;;25.00;93.30;;;;;;4192944;28;19974;-71
2022/10/20 01:52:44;;;;;;;;;;;25.00;93.30;;;;;;4209357;28;19924;-70
2022/10/20 01:54:50;;;;;;;;;;;25.10;93.20;;;;;;4196723;28;20031;-73
2022/10/20 01:57:03;;;;;;;;;;;25.10;93.30;;;;;;4197046;28;20019;-70
2022/10/20 01:59:22;;;;;;;;;;;25.10;93.30;;;;;;4220962;28;19930;-72
2022/10/20 02:01:30;;;;;;;;;;;25.20;93.20;;;;;;4187697;28;19964;-70
2022/10/20 02:03:44;;;;;;;;;;;25.30;93.20;;;;;;4203817;28;20292;-71
2022/10/20 02:05:59;;;;;;;;;;;25.30;93.30;;;;;;4180430;28;20023;-68
2022/10/20 02:08:32;;;;;;;;;;;25.30;93.00;;;;;;4207324;28;19928;-73
2022/10/20 02:10:44;;;;;;;;;;;25.40;93.20;;;;;;4183621;28;19936;-71
2022/10/20 02:12:53;;;;;;;;;;;25.40;92.90;;;;;;4176458;28;19925;-73
2022/10/20 02:14:58;;;;;;;;;;;25.40;92.60;;;;;;4163180;28;20011;-72
2022/10/20 02:17:03;;;;;;;;;;;25.40;92.70;;;;;;4118821;28;19930;-72
2022/10/20 02:19:13;;;;;;;;;;;25.30;92.80;;;;;;4129372;28;19965;-73
2022/10/20 02:21:17;;;;;;;;;;;25.40;92.90;;;;;;4127863;28;20317;-71
2022/10/20 02:23:21;;;;;;;;;;;25.40;92.90;;;;;;4144337;28;19925;-71
2022/10/20 02:25:28;;;;;;;;;;;25.50;92.80;;;;;;4144654;28;20037;-73
2022/10/20 02:27:33;;;;;;;;;;;25.40;92.60;;;;;;4144633;28;19960;-71
2022/10/20 02:29:39;;;;;;;;;;;25.50;92.60;;;;;;4145198;28;19929;-72
2022/10/20 02:31:46;;;;;;;;;;;25.50;92.70;;;;;;4144652;28;19956;-70
2022/10/20 02:33:49;;;;;;;;;;;25.40;92.20;;;;;;4143603;28;19937;-72
2022/10/20 02:36:09;;;;;;;;;;;25.50;92.20;;;;;;4144808;28;20165;-70
2022/10/20 02:38:36;;;;;;;;;;;25.60;92.20;;;;;;4147812;28;19999;-70
2022/10/20 02:40:44;;;;;;;;;;;25.60;92.00;;;;;;4144498;28;20472;-72
2022/10/20 02:42:49;;;;;;;;;;;25.80;92.20;;;;;;4144839;28;19934;-72
2022/10/20 02:45:00;;;;;;;;;;;25.50;91.30;;;;;;4144240;28;19929;-71
2022/10/20 02:47:11;;;;;;;;;;;25.40;91.10;;;;;;4143859;28;19976;-71
2022/10/20 02:49:28;;;;;;;;;;;25.30;91.00;;;;;;4195822;28;20030;-72
2022/10/20 02:51:36;;;;;;;;;;;25.40;91.00;;;;;;4195650;28;20023;-71
2022/10/20 02:53:41;;;;;;;;;;;25.60;91.00;;;;;;4195495;28;19925;-72
2022/10/20 02:55:45;;;;;;;;;;;25.80;90.80;;;;;;4195188;28;20329;-71
2022/10/20 02:57:53;;;;;;;;;;;25.80;90.60;;;;;;4193460;28;20027;-71
2022/10/20 02:59:58;;;;;;;;;;;25.90;90.60;;;;;;4195125;28;19985;-71
2022/10/20 03:02:02;;;;;;;;;;;26.00;90.80;;;;;;4194895;28;19962;-72
2022/10/20 03:04:11;;;;;;;;;;;26.20;91.20;;;;;;4193569;28;19990;-71
2022/10/20 03:06:23;;;;;;;;;;;26.20;90.90;;;;;;4194987;28;19924;-71
2022/10/20 03:08:34;;;;;;;;;;;26.30;90.60;;;;;;4193443;28;19929;-71
2022/10/20 03:10:49;;;;;;;;;;;26.40;90.60;;;;;;4193489;28;19924;-70
2022/10/20 03:12:54;;;;;;;;;;;26.50;90.60;;;;;;4185580;28;20406;-70
2022/10/20 03:15:18;;;;;;;;;;;26.50;90.70;;;;;;4193292;28;19928;-71
2022/10/20 03:17:32;;;;;;;;;;;26.40;90.30;;;;;;4208050;28;19924;-70
2022/10/20 03:19:55;;;;;;;;;;;26.30;90.10;;;;;;4193932;28;20445;-70
2022/10/20 03:22:00;;;;;;;;;;;26.30;90.30;;;;;;4194970;28;19966;-70
2022/10/20 03:24:06;;;;;;;;;;;26.40;90.00;;;;;;4195494;28;19959;-70
2022/10/20 03:26:10;;;;;;;;;;;26.40;90.20;;;;;;4210404;28;19924;-69
2022/10/20 03:28:14;;;;;;;;;;;26.50;90.30;;;;;;4195420;28;19970;-70
2022/10/20 03:30:23;;;;;;;;;;;26.60;90.20;;;;;;4143548;28;19930;-70
2022/10/20 03:32:27;;;;;;;;;;;26.60;90.10;;;;;;4195724;28;19924;-71
2022/10/20 03:34:31;;;;;;;;;;;26.70;90.40;;;;;;4195546;28;19924;-70
2022/10/20 03:36:40;;;;;;;;;;;26.70;90.30;;;;;;4193489;28;19929;-71
2022/10/20 03:38:45;;;;;;;;;;;26.80;90.30;;;;;;4196827;28;20421;-71
2022/10/20 03:40:50;;;;;;;;;;;26.90;90.60;;;;;;4193788;28;19978;-70
2022/10/20 03:43:05;;;;;;;;;;;26.90;90.50;;;;;;4194030;28;19932;-71
2022/10/20 03:45:11;;;;;;;;;;;26.80;90.20;;;;;;4194196;28;20038;-71
2022/10/20 03:47:22;;;;;;;;;;;26.90;90.50;;;;;;4192902;28;19964;-70
2022/10/20 03:49:27;;;;;;;;;;;26.90;90.50;;;;;;4194466;28;19928;-70
2022/10/20 03:51:32;;;;;;;;;;;27.00;90.10;;;;;;4210266;28;19962;-70
2022/10/20 03:53:36;;;;;;;;;;;27.00;89.00;;;;;;4210211;28;19924;-70
2022/10/20 03:55:42;;;;;;;;;;;27.00;89.40;;;;;;4177032;28;19976;-70
2022/10/20 03:57:46;;;;;;;;;;;27.10;89.70;;;;;;4208991;28;20005;-70
2022/10/20 03:59:51;;;;;;;;;;;27.10;89.70;;;;;;4193718;28;20563;-70
2022/10/20 04:01:58;;;;;;;;;;;27.30;90.00;;;;;;4194400;28;19925;-70
2022/10/20 04:04:03;;;;;;;;;;;27.30;90.00;;;;;;4193554;28;20023;-70
2022/10/20 04:06:08;;;;;;;;;;;27.30;89.70;;;;;;4209675;28;19932;-72
2022/10/20 04:08:19;;;;;;;;;;;27.20;89.70;;;;;;4195878;28;20459;-71
2022/10/20 04:10:26;;;;;;;;;;;27.30;90.00;;;;;;4194550;28;19932;-72
2022/10/20 04:12:37;;;;;;;;;;;27.30;90.10;;;;;;4195437;28;19959;-71
2022/10/20 04:14:45;;;;;;;;;;;27.20;88.60;;;;;;4194603;28;19924;-71
2022/10/20 04:16:57;;;;;;;;;;;27.30;89.50;;;;;;4193772;28;19932;-72
2022/10/20 04:19:01;;;;;;;;;;;27.40;90.10;;;;;;4193663;28;19924;-72
2022/10/20 04:21:10;;;;;;;;;;;27.40;90.00;;;;;;4208376;28;19932;-72
2022/10/20 04:23:15;;;;;;;;;;;27.40;90.00;;;;;;4195796;28;20682;-72
2022/10/20 04:25:39;;;;;;;;;;;27.50;90.00;;;;;;4191609;28;19928;-71
2022/10/20 04:27:46;;;;;;;;;;;27.50;90.20;;;;;;4193547;28;19960;-70
2022/10/20 04:30:00;;;;;;;;;;;27.60;90.20;;;;;;4192013;28;20348;-70
2022/10/20 04:32:07;;;;;;;;;;;27.70;90.40;;;;;;4194014;28;19932;-70
2022/10/20 04:34:15;;;;;;;;;;;27.70;90.10;;;;;;4193683;28;20023;-70
2022/10/20 04:36:25;;;;;;;;;;;27.70;90.00;;;;;;4184850;28;20347;-70
2022/10/20 04:38:38;;;;;;;;;;;27.70;90.10;;;;;;4196156;28;19955;-71
2022/10/20 04:40:52;;;;;;;;;;;27.70;90.10;;;;;;4193398;28;19928;-70
2022/10/20 04:42:59;;;;;;;;;;;27.60;90.00;;;;;;4184270;28;20351;-71
2022/10/20 04:45:06;;;;;;;;;;;27.50;90.20;;;;;;4192506;28;19936;-70
2022/10/20 04:47:16;;;;;;;;;;;27.50;90.10;;;;;;4193475;28;19929;-68
2022/10/20 04:49:22;;;;;;;;;;;27.30;90.20;;;;;;4209313;28;19932;-69
2022/10/20 04:51:27;;;;;;;;;;;27.20;90.20;;;;;;4193549;28;19935;-67
2022/10/20 04:53:33;;;;;;;;;;;27.30;90.40;;;;;;4193019;28;20002;-72
2022/10/20 04:55:37;;;;;;;;;;;27.20;90.60;;;;;;4191076;28;20723;-70
2022/10/20 04:57:42;;;;;;;;;;;27.30;90.20;;;;;;4192912;28;19929;-70
2022/10/20 04:59:50;;;;;;;;;;;27.30;90.50;;;;;;4182923;28;19932;-71
2022/10/20 05:01:54;;;;;;;;;;;27.30;89.90;;;;;;4184137;28;19962;-71
2022/10/20 05:03:58;;;;;;;;;;;27.20;90.20;;;;;;4191269;28;20443;-73
2022/10/20 05:06:07;;;;;;;;;;;27.30;90.00;;;;;;4207688;28;19970;-72
2022/10/20 05:08:11;;;;;;;;;;;27.30;90.20;;;;;;4193962;28;19925;-73
2022/10/20 05:10:18;;;;;;;;;;;27.20;90.10;;;;;;4192032;28;19937;-72
2022/10/20 05:12:24;;;;;;;;;;;27.10;90.00;;;;;;4184213;28;19929;-71
2022/10/20 05:14:28;;;;;;;;;;;27.20;90.30;;;;;;4193174;28;20503;-72
2022/10/20 05:16:32;;;;;;;;;;;27.20;91.20;;;;;;4208436;28;19935;-73
2022/10/20 05:18:38;;;;;;;;;;;27.30;90.20;;;;;;4192828;28;19990;-72
2022/10/20 05:20:42;;;;;;;;;;;27.50;89.90;;;;;;4190718;28;19925;-74
2022/10/20 05:23:06;;;;;;;;;;;27.60;89.90;;;;;;4191947;28;19928;-73
2022/10/20 05:25:13;;;;;;;;;;;27.70;89.70;;;;;;4191482;28;19965;-73
2022/10/20 05:27:38;;;;;;;;;;;27.80;89.80;;;;;;4192510;28;19994;-71
2022/10/20 05:29:43;;;;;;;;;;;28.00;89.70;;;;;;4193107;28;20309;-71
2022/10/20 05:31:51;;;;;;;;;;;27.90;88.90;;;;;;4207923;28;19936;-71
2022/10/20 05:33:56;;;;;;;;;;;28.00;89.20;;;;;;4148395;28;1376439;-69
2022/10/20 05:36:08;;;;;;;;;;;28.00;89.10;;;;;;4194093;28;19959;-69
2022/10/20 05:38:21;;;;;;;;;;;28.10;88.50;;;;;;4207637;28;19924;-72
2022/10/20 05:40:25;;;;;;;;;;;28.20;88.60;;;;;;4208223;28;19935;-70
2022/10/20 05:42:29;;;;;;;;;;;28.20;88.50;;;;;;4184048;28;19929;-72
2022/10/20 05:44:35;;;;;;;;;;;28.20;88.40;;;;;;4193016;28;19928;-72
2022/10/20 05:46:41;;;;;;;;;;;27.90;89.20;;;;;;4190316;28;20037;-70
2022/10/20 05:48:45;;;;;;;;;;;28.00;89.80;;;;;;4192212;28;19928;-71
2022/10/20 05:50:52;;;;;;;;;;;28.20;89.30;;;;;;4206727;28;19928;-70
2022/10/20 05:52:56;;;;;;;;;;;28.30;89.60;;;;;;4174905;28;19956;-71
2022/10/20 05:55:01;;;;;;;;;;;28.50;89.10;;;;;;4191894;28;19936;-71
2022/10/20 05:57:08;;;;;;;;;;;28.60;88.90;;;;;;4181101;28;19935;-71
2022/10/20 05:59:12;;;;;;;;;;;28.60;88.80;;;;;;4192440;28;19928;-70
2022/10/20 06:01:23;;;;;;;;;;;28.50;87.80;;;;;;4189453;28;19967;-70
2022/10/20 06:03:29;;;;;;;;;;;28.50;88.00;;;;;;4189861;28;19939;-70
2022/10/20 06:05:33;;;;;;;;;;;28.60;88.30;;;;;;4205962;28;20840;-71
2022/10/20 06:07:37;;;;;;;;;;;28.70;89.10;;;;;;4207595;28;19931;-71
2022/10/20 06:09:41;;;;;;;;;;;28.80;88.50;;;;;;4191485;28;19997;-71
2022/10/20 06:11:46;;;;;;;;;;;28.70;87.00;;;;;;4189068;28;19928;-70
2022/10/20 06:13:50;;;;;;;;;;;28.70;87.00;;;;;;4206632;28;19936;-71
2022/10/20 06:16:00;;;;;;;;;;;28.70;87.60;;;;;;4193995;28;19924;-72
2022/10/20 06:18:04;;;;;;;;;;;28.60;87.60;;;;;;4190475;28;20673;-73
2022/10/20 06:20:08;;;;;;;;;;;28.60;87.30;;;;;;4192740;28;20019;-72
2022/10/20 06:22:16;;;;;;;;;;;28.40;87.80;;;;;;4193628;28;19932;-72
2022/10/20 06:24:20;;;;;;;;;;;28.40;87.80;;;;;;4195279;28;19932;-72
2022/10/20 06:26:28;;;;;;;;;;;28.50;86.60;;;;;;4193738;28;20050;-72
2022/10/20 06:28:34;;;;;;;;;;;28.50;85.50;;;;;;4194431;28;19964;-72
2022/10/20 06:30:40;;;;;;;;;;;28.60;87.80;;;;;;4195495;28;19925;-72
2022/10/20 06:32:44;;;;;;;;;;;28.60;85.70;;;;;;4210193;28;20003;-72
2022/10/20 06:34:53;;;;;;;;;;;28.70;85.50;;;;;;4181041;28;20358;-71
2022/10/20 06:36:57;;;;;;;;;;;28.60;85.40;;;;;;4209743;28;19930;-70
2022/10/20 06:39:16;;;;;;;;;;;28.50;85.40;;;;;;4194393;28;19932;-71
2022/10/20 06:41:28;;;;;;;;;;;28.60;85.40;;;;;;4193818;28;19936;-70
2022/10/20 06:43:45;;;;;;;;;;;28.70;85.40;;;;;;4192056;28;20677;-71
2022/10/20 06:46:02;;;;;;;;;;;28.50;86.50;;;;;;4208345;28;19963;-71
2022/10/20 06:48:06;;;;;;;;;;;28.50;86.30;;;;;;4192088;28;19978;-71
2022/10/20 06:50:11;;;;;;;;;;;28.60;86.20;;;;;;4193938;28;19928;-72
2022/10/20 06:52:17;;;;;;;;;;;28.60;86.50;;;;;;4184577;28;20066;-71
2022/10/20 06:54:22;;;;;;;;;;;28.70;86.60;;;;;;4187065;28;19933;-70
2022/10/20 06:56:27;;;;;;;;;;;28.70;86.10;;;;;;4194291;28;20712;-69
2022/10/20 06:58:33;;;;;;;;;;;28.70;85.40;;;;;;4193497;28;20493;-71
2022/10/20 07:00:39;;;;;;;;;;;28.60;85.80;;;;;;4194548;28;19939;-72
2022/10/20 07:02:43;;;;;;;;;;;28.60;86.30;;;;;;4194633;28;20050;-70
2022/10/20 07:04:49;;;;;;;;;;;28.70;85.50;;;;;;4210886;28;19928;-72
2022/10/20 07:06:54;;;;;;;;;;;28.60;85.40;;;;;;4192081;28;19928;-71
2022/10/20 07:08:58;;;;;;;;;;;28.40;85.70;;;;;;4197275;28;19924;-71
2022/10/20 07:11:02;;;;;;;;;;;28.40;86.20;;;;;;4195134;28;20444;-72
2022/10/20 07:13:11;;;;;;;;;;;28.50;86.90;;;;;;4193281;28;19933;-71
2022/10/20 07:15:16;;;;;;;;;;;28.50;85.80;;;;;;4190283;28;19932;-72
2022/10/20 07:17:20;;;;;;;;;;;28.60;86.10;;;;;;4194810;28;19924;-72
2022/10/20 07:19:26;;;;;;;;;;;28.70;86.20;;;;;;4185725;28;19929;-71
2022/10/20 07:21:30;;;;;;;;;;;28.80;85.90;;;;;;4193341;28;20622;-71
2022/10/20 07:23:40;;;;;;;;;;;28.80;86.00;;;;;;4195582;28;20013;-72
2022/10/20 07:25:44;;;;;;;;;;;28.80;85.80;;;;;;4199677;28;19928;-71
2022/10/20 07:27:48;;;;;;;;;;;28.80;85.70;;;;;;4191627;28;19936;-72
2022/10/20 07:29:52;;;;;;;;;;;28.80;85.60;;;;;;4194098;28;19978;-72
2022/10/20 07:32:01;;;;;;;;;;;28.90;86.00;;;;;;4208318;28;19924;-73
2022/10/20 07:34:12;;;;;;;;;;;28.90;85.80;;;;;;4195512;28;19938;-73
2022/10/20 07:36:28;;;;;;;;;;;28.90;85.70;;;;;;4193704;28;19931;-76
2022/10/20 07:38:40;;;;;;;;;;;29.00;85.70;;;;;;4187841;28;20030;-74
2022/10/20 07:40:43;;;;;;;;;;;29.10;85.90;;;;;;4194526;28;19929;-75
2022/10/20 07:42:48;;;;;;;;;;;29.10;85.80;;;;;;4193906;28;19964;-75
2022/10/20 07:44:56;;;;;;;;;;;29.20;85.40;;;;;;4193369;28;19932;-69
2022/10/20 07:47:01;;;;;;;;;;;29.20;85.90;;;;;;4194790;28;19931;-73
2022/10/20 07:49:09;;;;;;;;;;;29.20;85.60;;;;;;4194773;28;19928;-70
2022/10/20 07:51:37;;;;;;;;;;;29.30;85.60;;;;;;4164630;28;19936;-69
2022/10/20 07:53:43;;;;;;;;;;;29.20;85.40;;;;;;4175915;28;19931;-73
2022/10/20 07:55:48;;;;;;;;;;;29.20;85.10;;;;;;4175713;28;20040;-73
2022/10/20 07:57:52;;;;;;;;;;;29.30;85.40;;;;;;4164708;28;20193;-73
2022/10/20 07:59:57;;;;;;;;;;;29.10;85.30;;;;;;4164444;28;20510;-74
2022/10/20 08:02:01;;;;;;;;;;;29.00;85.00;;;;;;4166916;28;19929;-69
2022/10/20 08:04:10;;;;;;;;;;;29.00;85.30;;;;;;4167380;28;20364;-72
2022/10/20 08:06:14;;;;;;;;;;;29.10;86.10;;;;;;4164756;28;19929;-73
2022/10/20 08:08:18;;;;;;;;;;;29.10;85.30;;;;;;4166195;28;19964;-72
2022/10/20 08:10:25;;;;;;;;;;;29.10;84.70;;;;;;4166504;28;20030;-72
2022/10/20 08:12:30;;;;;;;;;;;29.10;85.10;;;;;;4167641;28;21406;-73
2022/10/20 08:14:36;;;;;;;;;;;29.10;85.00;;;;;;4166930;28;20032;-75
2022/10/20 08:16:44;;;;;;;;;;;29.10;85.20;;;;;;4118112;28;19930;-74
2022/10/20 08:19:04;;;;;;;;;;;29.20;85.20;;;;;;4162583;28;19929;-72
2022/10/20 08:21:24;;;;;;;;;;;29.30;84.80;;;;;;4175798;28;20011;-76
2022/10/20 08:23:30;;;;;;;;;;;29.40;84.80;;;;;;4163843;28;19928;-72
2022/10/20 08:25:34;;;;;;;;;;;29.40;85.10;;;;;;4159477;28;19936;-74
2022/10/20 08:27:39;;;;;;;;;;;29.40;85.30;;;;;;4160093;28;20019;-74
2022/10/20 08:29:49;;;;;;;;;;;29.40;85.00;;;;;;4139699;28;19930;-74
2022/10/20 08:32:13;;;;;;;;;;;29.40;84.80;;;;;;4178701;28;19933;-73
2022/10/20 08:34:17;;;;;;;;;;;29.40;85.00;;;;;;4178219;28;19935;-72
2022/10/20 08:36:23;;;;;;;;;;;29.30;85.40;;;;;;4177817;28;20325;-71
2022/10/20 08:38:27;;;;;;;;;;;29.20;85.30;;;;;;4192811;28;20287;-72
2022/10/20 08:40:32;;;;;;;;;;;29.20;85.60;;;;;;4184060;28;19983;-72
2022/10/20 08:42:40;;;;;;;;;;;29.10;85.70;;;;;;4158624;28;19964;-72
2022/10/20 08:44:45;;;;;;;;;;;29.10;85.10;;;;;;4174277;28;19960;-71
2022/10/20 08:46:50;;;;;;;;;;;29.10;85.70;;;;;;4158160;28;20335;-72
2022/10/20 08:48:54;;;;;;;;;;;29.10;85.60;;;;;;4169316;28;20079;-72
2022/10/20 08:51:00;;;;;;;;;;;29.00;84.50;;;;;;4192067;28;19935;-72
2022/10/20 08:53:08;;;;;;;;;;;29.00;85.50;;;;;;4197647;28;19939;-72
2022/10/20 08:55:18;;;;;;;;;;;29.00;85.00;;;;;;4142936;28;20605;-72
2022/10/20 08:57:30;;;;;;;;;;;28.90;85.80;;;;;;4166037;28;19929;-73
2022/10/20 08:59:38;;;;;;;;;;;29.00;85.60;;;;;;4192192;28;19936;-72
2022/10/20 09:01:44;;;;;;;;;;;29.00;84.90;;;;;;4175897;28;19935;-72
2022/10/20 09:03:50;;;;;;;;;;;28.90;85.40;;;;;;4191832;28;19925;-72
2022/10/20 09:06:14;;;;;;;;;;;28.90;86.20;;;;;;4175465;28;20012;-75
2022/10/20 09:08:22;;;;;;;;;;;28.90;86.50;;;;;;4186939;28;20657;-73
2022/10/20 09:10:27;;;;;;;;;;;28.80;86.50;;;;;;4191028;28;19928;-73
2022/10/20 09:12:37;;;;;;;;;;;28.80;86.60;;;;;;4191634;28;19929;-73
2022/10/20 09:14:54;;;;;;;;;;;28.80;87.10;;;;;;4173659;28;20139;-73
2022/10/20 09:17:01;;;;;;;;;;;28.70;87.80;;;;;;4160871;28;20327;-73
2022/10/20 09:19:17;;;;;;;;;;;28.60;87.60;;;;;;4193412;28;20222;-73
2022/10/20 09:21:25;;;;;;;;;;;28.60;87.80;;;;;;4192848;28;20003;-73
2022/10/20 09:23:37;;;;;;;;;;;28.60;87.70;;;;;;4209620;28;19928;-72
2022/10/20 09:25:44;;;;;;;;;;;28.60;87.90;;;;;;4208341;28;19958;-72
2022/10/20 09:28:03;;;;;;;;;;;28.60;88.30;;;;;;4207667;28;20027;-72
2022/10/20 09:30:18;;;;;;;;;;;28.60;88.20;;;;;;4194139;28;19929;-72
2022/10/20 09:32:39;;;;;;;;;;;28.60;88.20;;;;;;4193865;28;20290;-72
2022/10/20 09:35:17;;;;;;;;;;;28.60;88.50;;;;;;4161765;28;19929;-72
2022/10/20 09:37:25;;;;;;;;;;;28.60;88.70;;;;;;4194129;28;19928;-71
2022/10/20 09:39:48;;;;;;;;;;;28.50;89.20;;;;;;4196663;28;19955;-72
2022/10/20 09:42:03;;;;;;;;;;;28.50;89.40;;;;;;4193658;28;19952;-72
2022/10/20 09:44:08;;;;;;;;;;;28.50;89.40;;;;;;4209175;28;19924;-72
2022/10/20 09:46:11;;;;;;;;;;;28.50;89.60;;;;;;4208707;28;20049;-73
2022/10/20 09:48:23;;;;;;;;;;;28.50;90.00;;;;;;4193162;28;19924;-73
2022/10/20 09:50:46;;;;;;;;;;;28.40;90.10;;;;;;4192335;28;19966;-72
2022/10/20 09:52:59;;;;;;;;;;;28.40;90.50;;;;;;4208424;28;19946;-72
2022/10/20 09:55:06;;;;;;;;;;;28.40;90.60;;;;;;4193741;28;19960;-72
2022/10/20 09:57:19;;;;;;;;;;;28.40;90.80;;;;;;4211317;28;19942;-73
2022/10/20 09:59:26;;;;;;;;;;;28.30;90.50;;;;;;4196982;28;19959;-73
2022/10/20 10:01:32;;;;;;;;;;;28.30;90.40;;;;;;4193741;28;20027;-72
2022/10/20 10:03:37;;;;;;;;;;;28.30;90.50;;;;;;4213532;28;19927;-72
2022/10/20 10:05:41;;;;;;;;;;;28.30;90.60;;;;;;4188382;28;19925;-72
2022/10/20 10:07:58;;;;;;;;;;;28.30;90.60;;;;;;4200579;28;20390;-72
2022/10/20 10:10:06;;;;;;;;;;;28.20;90.70;;;;;;4194134;28;19978;-73
2022/10/20 10:12:11;;;;;;;;;;;28.20;90.70;;;;;;4211398;28;19959;-72
2022/10/20 10:14:20;;;;;;;;;;;28.20;91.10;;;;;;4212024;28;20017;-74
2022/10/20 10:16:44;;;;;;;;;;;28.20;90.80;;;;;;4195061;28;19939;-73
2022/10/20 10:18:54;;;;;;;;;;;28.20;91.00;;;;;;4196563;28;19967;-72
2022/10/20 10:21:06;;;;;;;;;;;28.20;90.80;;;;;;4210747;28;19932;-72
2022/10/20 10:23:26;;;;;;;;;;;28.10;90.80;;;;;;4188135;28;19933;-73
2022/10/20 10:25:32;;;;;;;;;;;28.10;90.70;;;;;;4196435;28;19929;-73
2022/10/20 10:27:40;;;;;;;;;;;28.10;90.70;;;;;;4196918;28;19924;-69
2022/10/20 10:29:55;;;;;;;;;;;28.00;90.60;;;;;;4194871;28;19933;-73
2022/10/20 10:32:11;;;;;;;;;;;28.10;90.70;;;;;;4183586;28;19969;-72
2022/10/20 10:34:27;;;;;;;;;;;28.10;90.70;;;;;;4194900;28;19924;-73
2022/10/20 10:36:33;;;;;;;;;;;28.00;90.80;;;;;;4192547;28;20399;-74
2022/10/20 10:38:37;;;;;;;;;;;28.10;90.80;;;;;;4209212;28;20577;-72
2022/10/20 10:40:48;;;;;;;;;;;28.00;90.70;;;;;;4194962;28;20406;-72
2022/10/20 10:43:05;;;;;;;;;;;28.00;90.70;;;;;;4194636;28;19931;-73
2022/10/20 10:45:20;;;;;;;;;;;28.00;90.80;;;;;;4193813;28;19935;-72
2022/10/20 10:47:36;;;;;;;;;;;28.00;90.80;;;;;;4194071;28;19936;-72
2022/10/20 10:49:46;;;;;;;;;;;27.90;91.00;;;;;;4194115;28;19928;-71
2022/10/20 10:52:04;;;;;;;;;;;27.80;91.30;;;;;;4194299;28;20373;-72
2022/10/20 10:54:08;;;;;;;;;;;27.80;91.30;;;;;;4191453;28;19930;-73
2022/10/20 10:56:26;;;;;;;;;;;27.80;91.40;;;;;;4195005;28;19932;-70
2022/10/20 10:58:43;;;;;;;;;;;27.70;91.50;;;;;;4193363;28;20018;-72
2022/10/20 11:00:59;;;;;;;;;;;27.60;91.50;;;;;;4192684;28;19939;-72
2022/10/20 11:03:13;;;;;;;;;;;27.60;91.60;;;;;;4193315;28;20378;-73
2022/10/20 11:05:24;;;;;;;;;;;27.60;91.30;;;;;;4208533;28;19934;-73
2022/10/20 11:07:33;;;;;;;;;;;27.60;91.10;;;;;;4193812;28;20684;-73
2022/10/20 11:09:41;;;;;;;;;;;27.50;91.20;;;;;;4195370;28;20506;-71
2022/10/20 11:12:07;;;;;;;;;;;27.50;91.20;;;;;;4194495;28;20003;-71
2022/10/20 11:14:18;;;;;;;;;;;27.50;91.10;;;;;;4207756;28;19928;-72
2022/10/20 11:16:30;;;;;;;;;;;27.60;90.80;;;;;;4209363;28;19930;-73
2022/10/20 11:18:47;;;;;;;;;;;27.60;90.80;;;;;;4193308;28;19925;-71
2022/10/20 11:20:57;;;;;;;;;;;27.60;90.80;;;;;;4209151;28;20395;-72
2022/10/20 11:23:17;;;;;;;;;;;27.60;90.60;;;;;;4195155;28;19933;-72
2022/10/20 11:25:32;;;;;;;;;;;27.50;90.80;;;;;;4194150;28;20269;-71
2022/10/20 11:27:40;;;;;;;;;;;27.50;90.70;;;;;;4207441;28;20053;-74
2022/10/20 11:29:47;;;;;;;;;;;27.40;90.80;;;;;;4208960;28;19974;-73
2022/10/20 11:32:00;;;;;;;;;;;27.50;90.70;;;;;;4193758;28;19924;-73
2022/10/20 11:34:10;;;;;;;;;;;27.40;90.80;;;;;;4207509;28;20069;-73
2022/10/20 11:36:18;;;;;;;;;;;27.40;90.90;;;;;;4191608;28;20385;-74
2022/10/20 11:38:30;;;;;;;;;;;27.50;90.90;;;;;;4208992;28;20304;-73
2022/10/20 11:40:39;;;;;;;;;;;27.30;91.10;;;;;;4193621;28;20366;-73
2022/10/20 11:42:58;;;;;;;;;;;27.30;91.00;;;;;;4189513;28;20023;-72
2022/10/20 11:45:23;;;;;;;;;;;27.40;91.00;;;;;;4206849;28;19958;-74
2022/10/20 11:47:34;;;;;;;;;;;27.40;91.00;;;;;;4188820;28;19990;-73
2022/10/20 11:49:42;;;;;;;;;;;27.40;90.90;;;;;;4204779;28;19928;-74
2022/10/20 11:52:00;;;;;;;;;;;27.40;91.20;;;;;;4193397;28;19932;-74
2022/10/20 11:54:29;;;;;;;;;;;27.40;91.20;;;;;;4193183;28;19928;-73
2022/10/20 11:56:42;;;;;;;;;;;27.20;91.50;;;;;;4184277;28;19954;-74
2022/10/20 11:59:07;;;;;;;;;;;27.20;91.60;;;;;;4167566;28;19929;-73
2022/10/20 12:01:29;;;;;;;;;;;27.20;91.60;;;;;;4193022;28;20002;-72
2022/10/20 12:03:37;;;;;;;;;;;27.10;91.70;;;;;;4192491;28;19963;-73
2022/10/20 12:05:58;;;;;;;;;;;27.20;91.60;;;;;;4193856;28;19935;-73
2022/10/20 12:08:07;;;;;;;;;;;27.20;91.30;;;;;;4208180;28;20360;-73
2022/10/20 12:10:57;;;;;;;;;;;27.30;91.30;;;;;;4192868;28;19932;-73
2022/10/20 12:13:18;;;;;;;;;;;27.30;91.30;;;;;;4194613;28;19938;-73
2022/10/20 12:15:33;;;;;;;;;;;27.30;91.30;;;;;;4205706;28;19974;-73
2022/10/20 12:17:40;;;;;;;;;;;27.30;91.40;;;;;;4192779;28;19967;-74
2022/10/20 12:19:49;;;;;;;;;;;27.30;91.50;;;;;;4193168;28;19928;-73
2022/10/20 12:22:05;;;;;;;;;;;27.30;91.40;;;;;;4208777;28;19928;-72
2022/10/20 12:24:28;;;;;;;;;;;27.20;91.50;;;;;;4197991;28;20358;-73
2022/10/20 12:26:35;;;;;;;;;;;27.20;91.30;;;;;;4193900;28;19928;-72
2022/10/20 12:28:49;;;;;;;;;;;27.20;91.40;;;;;;4192288;28;20034;-71
2022/10/20 12:31:03;;;;;;;;;;;27.20;91.50;;;;;;4193200;28;20720;-73
2022/10/20 12:33:17;;;;;;;;;;;27.20;91.50;;;;;;4208435;28;19928;-74
2022/10/20 12:35:28;;;;;;;;;;;27.30;91.60;;;;;;4190035;28;20043;-74
2022/10/20 12:37:56;;;;;;;;;;;27.10;91.80;;;;;;4165454;28;19929;-74